Time;durP1;ratioP1;P1;durP2;ratioP2;P2;SDS_P1;SDS_P2;PMS_P1;PMS_P2;Temp;Humidity;BMP_temperature;BMP_pressure;BME280_temperature;BME280_humidity;BME280_pressure;Samples;Min_cycle;Max_cycle;Signal;HPM_P1;HPM_P2
2023/08/01 00:02:03;;;;;;;4.82;2.83;;;;;;;;;;5016590;28;20036;-78
2023/08/01 00:04:28;;;;;;;5.78;2.30;;;;;;;;;;5023824;28;20066;-79
2023/08/01 00:06:55;;;;;;;2.60;2.40;;;;;;;;;;5021048;28;20038;-78
2023/08/01 00:09:20;;;;;;;3.00;2.40;;;;;;;;;;5024619;28;20022;-78
2023/08/01 00:11:45;;;;;;;2.92;2.42;;;;;;;;;;5022528;28;20441;-78
2023/08/01 00:14:11;;;;;;;3.05;2.63;;;;;;;;;;5019527;28;20022;-78
2023/08/01 00:16:36;;;;;;;4.47;2.38;;;;;;;;;;5024745;28;20053;-78
2023/08/01 00:19:01;;;;;;;3.92;2.60;;;;;;;;;;5005632;28;20026;-78
2023/08/01 00:21:27;;;;;;;2.65;2.45;;;;;;;;;;5022152;28;20033;-78
2023/08/01 00:23:52;;;;;;;4.00;2.78;;;;;;;;;;5021791;28;20117;-78
2023/08/01 00:26:18;;;;;;;4.57;2.80;;;;;;;;;;5020791;28;20045;-78
2023/08/01 00:28:43;;;;;;;2.42;1.92;;;;;;;;;;5021324;28;20037;-79
2023/08/01 00:31:08;;;;;;;2.60;2.40;;;;;;;;;;5019691;28;20109;-79
2023/08/01 00:33:34;;;;;;;2.92;2.30;;;;;;;;;;5021266;28;20401;-80
2023/08/01 00:36:00;;;;;;;2.58;2.38;;;;;;;;;;5019906;28;20029;-78
2023/08/01 00:38:26;;;;;;;6.20;2.65;;;;;;;;;;5027391;28;20038;-78
2023/08/01 00:40:51;;;;;;;5.70;2.60;;;;;;;;;;5020013;28;20057;-79
2023/08/01 00:43:17;;;;;;;3.88;2.60;;;;;;;;;;5015898;28;20064;-79
2023/08/01 00:45:42;;;;;;;3.22;2.40;;;;;;;;;;5021751;28;20589;-78
2023/08/01 00:48:08;;;;;;;4.20;2.58;;;;;;;;;;5016642;28;20401;-78
2023/08/01 00:50:34;;;;;;;2.80;2.40;;;;;;;;;;5018169;28;20112;-78
2023/08/01 00:53:00;;;;;;;4.90;2.58;;;;;;;;;;5021298;28;20037;-78
2023/08/01 00:55:27;;;;;;;3.17;2.55;;;;;;;;;;5015277;28;20034;-78
2023/08/01 00:57:53;;;;;;;3.25;2.55;;;;;;;;;;5015911;28;20033;-78
2023/08/01 01:00:18;;;;;;;2.50;2.28;;;;;;;;;;5018891;28;20071;-78
2023/08/01 01:02:43;;;;;;;3.35;2.53;;;;;;;;;;5003175;28;20396;-78
2023/08/01 01:05:09;;;;;;;3.38;2.55;;;;;;;;;;5002509;28;20057;-78
2023/08/01 01:07:34;;;;;;;4.03;2.40;;;;;;;;;;5027038;28;20502;-79
2023/08/01 01:10:00;;;;;;;3.83;2.33;;;;;;;;;;5015275;28;20117;-78
2023/08/01 01:12:25;;;;;;;4.97;2.65;;;;;;;;;;5022450;28;20034;-78
2023/08/01 01:14:51;;;;;;;2.90;2.45;;;;;;;;;;5019210;28;20494;-78
2023/08/01 01:17:16;;;;;;;4.40;2.25;;;;;;;;;;5019151;28;20022;-78
2023/08/01 01:19:42;;;;;;;3.13;2.50;;;;;;;;;;5021504;28;20022;-79
2023/08/01 01:22:10;;;;;;;2.92;2.35;;;;;;;;;;5016787;28;20030;-78
2023/08/01 01:24:36;;;;;;;6.55;2.78;;;;;;;;;;5025043;28;20037;-78
2023/08/01 01:27:03;;;;;;;3.47;2.60;;;;;;;;;;5021540;28;20017;-78
2023/08/01 01:29:29;;;;;;;4.93;2.40;;;;;;;;;;5017029;28;20497;-78
2023/08/01 01:31:55;;;;;;;3.53;2.60;;;;;;;;;;5017368;28;20048;-78
2023/08/01 01:34:21;;;;;;;2.72;2.50;;;;;;;;;;5021367;28;20030;-78
2023/08/01 01:36:46;;;;;;;9.88;2.55;;;;;;;;;;5028486;28;20088;-78
2023/08/01 01:39:12;;;;;;;2.78;2.28;;;;;;;;;;5026299;28;20025;-78
2023/08/01 01:41:37;;;;;;;4.22;2.53;;;;;;;;;;5027591;28;20025;-79
2023/08/01 01:44:03;;;;;;;3.20;2.60;;;;;;;;;;5022610;28;20556;-78
2023/08/01 01:46:28;;;;;;;3.67;2.53;;;;;;;;;;5022619;28;20196;-78
2023/08/01 01:48:53;;;;;;;3.30;2.60;;;;;;;;;;5023355;28;20040;-79
2023/08/01 01:51:20;;;;;;;4.25;2.67;;;;;;;;;;5018636;28;20054;-78
2023/08/01 01:53:46;;;;;;;3.35;2.75;;;;;;;;;;5030113;28;20537;-79
2023/08/01 01:56:11;;;;;;;4.63;2.50;;;;;;;;;;5026043;28;20057;-78
2023/08/01 01:58:36;;;;;;;4.05;2.70;;;;;;;;;;5026999;28;20042;-78
2023/08/01 02:01:01;;;;;;;3.72;2.55;;;;;;;;;;5019467;28;20520;-79
2023/08/01 02:03:27;;;;;;;2.83;2.60;;;;;;;;;;5020092;28;20030;-78
2023/08/01 02:05:52;;;;;;;3.83;2.70;;;;;;;;;;5026012;28;20113;-78
2023/08/01 02:08:17;;;;;;;3.47;2.90;;;;;;;;;;5021437;28;20040;-78
2023/08/01 02:10:43;;;;;;;5.72;2.80;;;;;;;;;;5016939;28;20499;-79
2023/08/01 02:13:08;;;;;;;6.55;3.10;;;;;;;;;;5026730;28;20038;-79
2023/08/01 02:15:34;;;;;;;4.68;2.70;;;;;;;;;;5028659;28;20457;-79
2023/08/01 02:17:59;;;;;;;4.95;2.65;;;;;;;;;;5020309;28;20120;-78
2023/08/01 02:20:24;;;;;;;3.47;2.55;;;;;;;;;;5012049;28;20098;-78
2023/08/01 02:22:50;;;;;;;3.95;3.05;;;;;;;;;;5012254;28;20041;-79
2023/08/01 02:25:15;;;;;;;4.25;2.65;;;;;;;;;;5030884;28;20076;-78
2023/08/01 02:27:41;;;;;;;4.68;2.47;;;;;;;;;;5024492;28;20061;-79
2023/08/01 02:30:06;;;;;;;10.43;2.65;;;;;;;;;;5025877;28;20029;-79
2023/08/01 02:32:32;;;;;;;4.80;2.80;;;;;;;;;;5026581;28;20073;-79
2023/08/01 02:34:57;;;;;;;3.67;2.67;;;;;;;;;;5026551;28;20029;-79
2023/08/01 02:37:22;;;;;;;6.28;2.53;;;;;;;;;;5022633;28;20096;-79
2023/08/01 02:39:48;;;;;;;4.18;2.63;;;;;;;;;;5026042;28;20425;-78
2023/08/01 02:42:13;;;;;;;6.40;3.15;;;;;;;;;;5022422;28;20508;-77
2023/08/01 02:44:38;;;;;;;6.13;3.10;;;;;;;;;;5022272;28;20032;-78
2023/08/01 02:47:04;;;;;;;5.85;3.17;;;;;;;;;;5023555;28;20034;-77
2023/08/01 02:49:29;;;;;;;5.40;2.97;;;;;;;;;;5024289;28;20057;-77
2023/08/01 02:51:54;;;;;;;4.22;2.60;;;;;;;;;;5021259;28;20034;-79
2023/08/01 02:54:19;;;;;;;4.45;2.85;;;;;;;;;;5017799;28;20021;-77
2023/08/01 02:56:45;;;;;;;4.10;3.05;;;;;;;;;;5020492;28;20025;-77
2023/08/01 02:59:10;;;;;;;4.30;2.88;;;;;;;;;;5017026;28;20465;-78
2023/08/01 03:01:38;;;;;;;3.65;2.88;;;;;;;;;;5005420;28;20117;-78
2023/08/01 03:04:04;;;;;;;4.13;2.63;;;;;;;;;;5020133;28;20034;-77
2023/08/01 03:06:33;;;;;;;4.45;2.53;;;;;;;;;;5021702;28;20042;-78
2023/08/01 03:08:59;;;;;;;5.57;3.13;;;;;;;;;;5023986;28;20040;-77
2023/08/01 03:11:25;;;;;;;4.03;2.53;;;;;;;;;;5021023;28;20038;-78
2023/08/01 03:13:50;;;;;;;4.43;2.97;;;;;;;;;;5021090;28;20038;-78
2023/08/01 03:16:16;;;;;;;4.00;2.50;;;;;;;;;;5019870;28;20041;-78
2023/08/01 03:18:42;;;;;;;3.40;2.80;;;;;;;;;;5024858;28;20065;-77
2023/08/01 03:21:08;;;;;;;3.13;2.50;;;;;;;;;;5023613;28;20406;-77
2023/08/01 03:23:33;;;;;;;4.13;2.63;;;;;;;;;;5026026;28;20018;-78
2023/08/01 03:25:59;;;;;;;5.70;2.80;;;;;;;;;;5023736;28;20401;-77
2023/08/01 03:28:26;;;;;;;3.35;2.72;;;;;;;;;;5029966;28;20353;-78
2023/08/01 03:30:53;;;;;;;3.70;2.60;;;;;;;;;;5019996;28;20095;-77
2023/08/01 03:33:18;;;;;;;3.15;2.63;;;;;;;;;;5026283;28;20072;-77
2023/08/01 03:35:44;;;;;;;4.90;2.90;;;;;;;;;;5027503;28;20440;-79
2023/08/01 03:38:09;;;;;;;3.67;2.85;;;;;;;;;;5026785;28;20057;-77
2023/08/01 03:40:34;;;;;;;5.10;2.40;;;;;;;;;;5030324;28;20033;-78
2023/08/01 03:43:00;;;;;;;4.28;2.42;;;;;;;;;;5023872;28;20073;-78
2023/08/01 03:45:25;;;;;;;4.93;2.80;;;;;;;;;;5019759;28;20681;-78
2023/08/01 03:47:50;;;;;;;5.80;2.78;;;;;;;;;;5024400;28;20036;-78
2023/08/01 03:50:16;;;;;;;7.90;3.20;;;;;;;;;;5026776;28;20068;-79
2023/08/01 03:52:41;;;;;;;5.38;3.05;;;;;;;;;;5027162;28;20489;-79
2023/08/01 03:55:07;;;;;;;9.05;2.78;;;;;;;;;;5023393;28;20152;-79
2023/08/01 03:57:33;;;;;;;7.63;2.90;;;;;;;;;;5024771;28;20402;-78
2023/08/01 03:59:59;;;;;;;4.05;2.80;;;;;;;;;;5026951;28;20060;-79
2023/08/01 04:02:25;;;;;;;5.38;2.70;;;;;;;;;;5027793;28;20038;-79
2023/08/01 04:04:50;;;;;;;4.05;2.83;;;;;;;;;;5028388;28;20052;-79
2023/08/01 04:07:15;;;;;;;6.50;2.65;;;;;;;;;;5019837;28;20036;-79
2023/08/01 04:09:41;;;;;;;5.00;2.65;;;;;;;;;;5022341;28;20127;-80
2023/08/01 04:12:06;;;;;;;2.88;2.60;;;;;;;;;;5026969;28;20032;-79
2023/08/01 04:14:32;;;;;;;3.15;2.35;;;;;;;;;;5028861;28;20026;-79
2023/08/01 04:16:59;;;;;;;5.97;2.90;;;;;;;;;;5021041;28;20362;-79
2023/08/01 04:19:24;;;;;;;3.15;2.35;;;;;;;;;;5019163;28;20409;-79
2023/08/01 04:21:50;;;;;;;3.85;2.63;;;;;;;;;;5007526;28;20132;-79
2023/08/01 04:24:15;;;;;;;3.22;2.55;;;;;;;;;;5017306;28;20405;-80
2023/08/01 04:26:40;;;;;;;4.18;2.80;;;;;;;;;;5024076;28;20048;-79
2023/08/01 04:29:06;;;;;;;3.88;3.03;;;;;;;;;;5020198;28;20159;-80
2023/08/01 04:31:31;;;;;;;4.15;2.78;;;;;;;;;;5020620;28;20113;-79
2023/08/01 04:33:56;;;;;;;4.43;2.40;;;;;;;;;;5022678;28;20048;-79
2023/08/01 04:36:22;;;;;;;4.60;2.65;;;;;;;;;;5003115;28;20057;-79
2023/08/01 04:38:47;;;;;;;3.88;2.72;;;;;;;;;;5022691;28;20096;-80
2023/08/01 04:41:12;;;;;;;3.35;2.65;;;;;;;;;;5025268;28;20045;-80
2023/08/01 04:43:38;;;;;;;3.85;2.63;;;;;;;;;;5023326;28;20080;-80
2023/08/01 04:46:03;;;;;;;4.78;3.13;;;;;;;;;;5005840;28;20057;-80
2023/08/01 04:48:28;;;;;;;5.15;3.00;;;;;;;;;;5015858;28;20037;-80
2023/08/01 04:50:54;;;;;;;9.85;2.97;;;;;;;;;;5025270;28;20458;-80
2023/08/01 04:53:19;;;;;;;5.93;2.75;;;;;;;;;;5027032;28;20041;-79
2023/08/01 04:55:44;;;;;;;3.33;2.88;;;;;;;;;;5019627;28;20041;-79
2023/08/01 04:58:09;;;;;;;5.35;2.83;;;;;;;;;;5022240;28;20033;-80
2023/08/01 05:00:35;;;;;;;5.22;3.30;;;;;;;;;;5031225;28;20246;-80
2023/08/01 05:03:00;;;;;;;4.22;2.88;;;;;;;;;;5019264;28;20037;-79
2023/08/01 05:05:26;;;;;;;5.50;3.20;;;;;;;;;;5022868;28;20042;-80
2023/08/01 05:07:51;;;;;;;5.32;3.00;;;;;;;;;;5027108;28;20045;-79
2023/08/01 05:10:17;;;;;;;3.30;2.95;;;;;;;;;;5026654;28;20036;-79
2023/08/01 05:12:42;;;;;;;4.38;3.08;;;;;;;;;;5018957;28;20239;-80
2023/08/01 05:15:07;;;;;;;4.97;2.95;;;;;;;;;;5017042;28;20029;-78
2023/08/01 05:17:33;;;;;;;7.97;2.80;;;;;;;;;;5004499;28;20398;-78
2023/08/01 05:19:58;;;;;;;3.95;2.60;;;;;;;;;;5017449;28;20044;-79
2023/08/01 05:22:23;;;;;;;7.57;3.30;;;;;;;;;;5015209;28;20077;-78
2023/08/01 05:24:49;;;;;;;17.65;3.35;;;;;;;;;;5016181;28;20057;-78
2023/08/01 05:27:14;;;;;;;4.10;2.72;;;;;;;;;;5018930;28;20021;-81
2023/08/01 05:29:39;;;;;;;7.65;2.85;;;;;;;;;;5019930;28;20457;-81
2023/08/01 05:32:05;;;;;;;3.53;2.97;;;;;;;;;;5015080;28;20029;-79
2023/08/01 05:34:30;;;;;;;4.80;2.67;;;;;;;;;;5003828;28;20993;-78
2023/08/01 05:36:56;;;;;;;3.42;2.75;;;;;;;;;;5015834;28;21045;-79
2023/08/01 05:39:21;;;;;;;4.80;3.13;;;;;;;;;;5024594;28;20394;-78
2023/08/01 05:41:46;;;;;;;3.58;2.72;;;;;;;;;;5018565;28;20448;-80
2023/08/01 05:44:12;;;;;;;5.85;3.15;;;;;;;;;;5022144;28;20561;-81
2023/08/01 05:46:37;;;;;;;6.93;3.22;;;;;;;;;;4999757;28;20057;-79
2023/08/01 05:49:02;;;;;;;4.70;3.40;;;;;;;;;;5015034;28;20072;-79
2023/08/01 05:51:28;;;;;;;6.30;3.20;;;;;;;;;;5018091;28;20042;-79
2023/08/01 05:53:53;;;;;;;7.68;2.85;;;;;;;;;;5018554;28;20025;-80
2023/08/01 05:56:19;;;;;;;4.70;2.92;;;;;;;;;;5000276;28;21346;-80
2023/08/01 05:58:44;;;;;;;6.22;2.85;;;;;;;;;;5020345;28;20059;-79
2023/08/01 06:01:11;;;;;;;5.57;2.95;;;;;;;;;;5013085;28;20065;-79
2023/08/01 06:03:37;;;;;;;5.63;2.88;;;;;;;;;;5011793;28;20038;-79
2023/08/01 06:06:02;;;;;;;7.28;3.00;;;;;;;;;;5001006;28;20025;-79
2023/08/01 06:08:27;;;;;;;4.38;2.95;;;;;;;;;;5013452;28;20133;-79
2023/08/01 06:10:53;;;;;;;3.33;2.95;;;;;;;;;;5013162;28;20088;-79
2023/08/01 06:13:19;;;;;;;7.00;3.20;;;;;;;;;;5016204;28;20045;-79
2023/08/01 06:15:44;;;;;;;2.95;2.40;;;;;;;;;;5012256;28;20046;-79
2023/08/01 06:18:11;;;;;;;6.28;3.17;;;;;;;;;;5018551;28;20031;-79
2023/08/01 06:20:37;;;;;;;5.45;3.17;;;;;;;;;;5014790;28;20021;-79
2023/08/01 06:23:02;;;;;;;7.35;3.55;;;;;;;;;;5011790;28;20034;-79
2023/08/01 06:25:27;;;;;;;7.70;5.30;;;;;;;;;;5013633;28;20035;-79
2023/08/01 06:27:53;;;;;;;8.27;2.78;;;;;;;;;;5018404;28;20050;-79
2023/08/01 06:30:18;;;;;;;6.82;2.78;;;;;;;;;;5020960;28;20390;-79
2023/08/01 06:32:43;;;;;;;4.75;2.75;;;;;;;;;;5017531;28;20576;-79
2023/08/01 06:35:09;;;;;;;4.60;2.95;;;;;;;;;;5017417;28;20050;-79
2023/08/01 06:37:34;;;;;;;7.80;2.63;;;;;;;;;;5023537;28;20026;-79
2023/08/01 06:40:01;;;;;;;7.35;3.20;;;;;;;;;;5024874;28;20055;-79
2023/08/01 06:42:26;;;;;;;7.22;3.28;;;;;;;;;;5021611;28;20156;-81
2023/08/01 06:44:51;;;;;;;9.45;4.78;;;;;;;;;;5023279;28;20049;-79
2023/08/01 06:47:16;;;;;;;9.40;5.80;;;;;;;;;;5021435;28;20048;-79
2023/08/01 06:49:42;;;;;;;9.30;4.70;;;;;;;;;;5019625;28;20038;-79
2023/08/01 06:52:07;;;;;;;4.30;2.80;;;;;;;;;;5024989;28;20096;-78
2023/08/01 06:54:33;;;;;;;4.97;3.08;;;;;;;;;;5017035;28;20042;-79
2023/08/01 06:56:59;;;;;;;4.28;3.10;;;;;;;;;;5023399;28;20032;-79
2023/08/01 06:59:25;;;;;;;7.07;3.00;;;;;;;;;;5017350;28;20106;-79
2023/08/01 07:01:50;;;;;;;4.80;3.17;;;;;;;;;;5026498;28;20306;-79
2023/08/01 07:04:15;;;;;;;8.73;3.78;;;;;;;;;;5022529;28;20656;-79
2023/08/01 07:06:41;;;;;;;3.53;2.53;;;;;;;;;;5022746;28;20041;-79
2023/08/01 07:09:06;;;;;;;4.47;2.80;;;;;;;;;;5022645;28;20029;-79
2023/08/01 07:11:32;;;;;;;6.32;3.00;;;;;;;;;;5022718;28;20072;-79
2023/08/01 07:13:57;;;;;;;9.07;2.65;;;;;;;;;;5023489;28;20041;-78
2023/08/01 07:16:23;;;;;;;3.08;2.55;;;;;;;;;;5010430;28;20069;-78
2023/08/01 07:18:48;;;;;;;4.40;2.83;;;;;;;;;;5019862;28;20045;-79
2023/08/01 07:21:13;;;;;;;4.88;2.30;;;;;;;;;;5017836;28;20041;-78
2023/08/01 07:23:39;;;;;;;2.35;2.15;;;;;;;;;;5020446;28;20072;-78
2023/08/01 07:26:04;;;;;;;3.38;2.35;;;;;;;;;;5008499;28;20122;-78
2023/08/01 07:28:30;;;;;;;3.72;2.72;;;;;;;;;;5017420;28;20057;-78
2023/08/01 07:31:04;;;;;;;4.72;2.75;;;;;;;;;;5017431;28;20132;-78
2023/08/01 07:33:29;;;;;;;;;;;;;;;;;;5015219;28;20461;-78
2023/08/01 07:35:55;;;;;;;4.57;2.22;;;;;;;;;;5023206;28;19909;-78
2023/08/01 07:38:20;;;;;;;4.57;2.30;;;;;;;;;;5016223;28;20038;-78
2023/08/01 07:40:45;;;;;;;6.40;2.55;;;;;;;;;;5012704;28;20034;-78
2023/08/01 07:43:11;;;;;;;5.10;2.70;;;;;;;;;;5019976;28;20119;-78
2023/08/01 07:45:36;;;;;;;3.58;2.65;;;;;;;;;;5017772;28;20076;-78
2023/08/01 07:48:02;;;;;;;3.08;2.40;;;;;;;;;;5014214;28;20076;-77
2023/08/01 07:50:27;;;;;;;5.38;2.55;;;;;;;;;;5017193;28;20509;-77
2023/08/01 07:52:52;;;;;;;4.72;2.85;;;;;;;;;;5018906;28;20044;-78
2023/08/01 07:55:18;;;;;;;3.80;2.45;;;;;;;;;;5019663;28;20094;-78
2023/08/01 07:57:44;;;;;;;4.18;2.67;;;;;;;;;;5017333;28;20490;-78
2023/08/01 08:00:10;;;;;;;4.55;3.08;;;;;;;;;;5016681;28;20033;-78
2023/08/01 08:02:36;;;;;;;6.90;2.67;;;;;;;;;;5008272;28;20017;-78
2023/08/01 08:05:01;;;;;;;3.85;2.83;;;;;;;;;;5001954;28;20088;-78
2023/08/01 08:07:26;;;;;;;2.83;2.53;;;;;;;;;;5018715;28;20037;-78
2023/08/01 08:09:54;;;;;;;4.95;2.85;;;;;;;;;;5018401;28;20053;-78
2023/08/01 08:12:20;;;;;;;4.75;3.10;;;;;;;;;;5016948;28;20034;-78
2023/08/01 08:14:45;;;;;;;7.43;3.00;;;;;;;;;;5018648;28;20143;-78
2023/08/01 08:17:10;;;;;;;5.38;3.10;;;;;;;;;;5016269;28;20518;-78
2023/08/01 08:19:36;;;;;;;4.07;2.85;;;;;;;;;;5023455;28;20033;-78
2023/08/01 08:22:01;;;;;;;10.20;2.95;;;;;;;;;;5022935;28;20028;-78
2023/08/01 08:24:26;;;;;;;6.93;3.30;;;;;;;;;;5017518;28;20030;-78
2023/08/01 08:26:52;;;;;;;4.57;3.10;;;;;;;;;;5022175;28;20036;-80
2023/08/01 08:29:17;;;;;;;7.35;3.65;;;;;;;;;;5016556;28;20131;-80
2023/08/01 08:31:42;;;;;;;3.47;2.92;;;;;;;;;;5014587;28;20026;-78
2023/08/01 08:34:08;;;;;;;4.25;2.75;;;;;;;;;;5016940;28;20026;-77
2023/08/01 08:36:33;;;;;;;6.78;3.22;;;;;;;;;;5017185;28;20037;-80
2023/08/01 08:39:00;;;;;;;5.78;3.47;;;;;;;;;;5018794;28;20477;-77
2023/08/01 08:41:27;;;;;;;9.55;3.35;;;;;;;;;;5019824;28;20338;-78
2023/08/01 08:43:56;;;;;;;5.10;3.28;;;;;;;;;;5019735;28;20037;-78
2023/08/01 08:46:27;;;;;;;7.65;3.60;;;;;;;;;;5019493;28;20091;-78
2023/08/01 08:48:53;;;;;;;6.05;3.75;;;;;;;;;;5015511;28;20119;-78
2023/08/01 08:51:18;;;;;;;4.45;3.55;;;;;;;;;;5017956;28;20025;-78
2023/08/01 08:53:45;;;;;;;6.10;3.53;;;;;;;;;;5019880;28;20025;-78
2023/08/01 08:56:11;;;;;;;5.80;3.58;;;;;;;;;;5018854;28;20509;-81
2023/08/01 08:58:38;;;;;;;4.72;3.38;;;;;;;;;;5016598;28;20038;-78
2023/08/01 09:01:05;;;;;;;4.90;3.25;;;;;;;;;;5003051;28;20056;-78
2023/08/01 09:03:30;;;;;;;5.03;3.40;;;;;;;;;;5021811;28;20038;-79
2023/08/01 09:06:04;;;;;;;6.38;3.08;;;;;;;;;;5019694;28;20033;-79
2023/08/01 09:08:35;;;;;;;7.20;4.07;;;;;;;;;;5025012;28;20037;-79
2023/08/01 09:11:00;;;;;;;4.82;3.00;;;;;;;;;;5023800;28;20087;-79
2023/08/01 09:13:25;;;;;;;3.92;3.08;;;;;;;;;;5023745;28;20033;-79
2023/08/01 09:15:52;;;;;;;5.82;2.95;;;;;;;;;;5016754;28;20096;-76
2023/08/01 09:18:17;;;;;;;6.60;3.40;;;;;;;;;;5014009;28;20104;-80
2023/08/01 09:20:46;;;;;;;6.30;3.25;;;;;;;;;;5016652;28;20045;-78
2023/08/01 09:23:12;;;;;;;4.78;3.00;;;;;;;;;;4996232;28;20045;-77
2023/08/01 09:25:38;;;;;;;7.53;3.22;;;;;;;;;;4995934;28;20038;-78
2023/08/01 09:28:14;;;;;;;6.53;3.30;;;;;;;;;;5014654;28;20565;-79
2023/08/01 09:30:46;;;;;;;5.60;3.10;;;;;;;;;;4995935;28;20092;-78
2023/08/01 09:33:11;;;;;;;6.32;3.35;;;;;;;;;;5013533;28;20084;-79
2023/08/01 09:35:39;;;;;;;4.63;3.17;;;;;;;;;;5014880;28;20506;-78
2023/08/01 09:38:05;;;;;;;3.70;3.15;;;;;;;;;;5015593;28;20037;-80
2023/08/01 09:40:37;;;;;;;4.95;3.42;;;;;;;;;;4997753;28;20054;-80
2023/08/01 09:43:03;;;;;;;4.50;3.10;;;;;;;;;;5014878;28;20038;-78
2023/08/01 09:45:28;;;;;;;8.50;3.65;;;;;;;;;;5014528;28;20037;-80
2023/08/01 09:47:53;;;;;;;5.03;3.28;;;;;;;;;;5014495;28;20044;-81
2023/08/01 09:50:24;;;;;;;6.00;3.22;;;;;;;;;;4995660;28;20042;-78
2023/08/01 09:52:52;;;;;;;4.03;2.60;;;;;;;;;;4995686;28;20034;-77
2023/08/01 09:55:34;;;;;;;3.50;2.92;;;;;;;;;;5013004;28;20034;-78
2023/08/01 09:58:00;;;;;;;4.38;2.70;;;;;;;;;;5012926;28;20455;-78
2023/08/01 10:00:27;;;;;;;3.92;2.72;;;;;;;;;;5012109;28;20041;-78
2023/08/01 10:02:53;;;;;;;3.53;2.75;;;;;;;;;;5014498;28;20022;-78
2023/08/01 10:05:19;;;;;;;4.85;3.30;;;;;;;;;;5017644;28;20455;-78
2023/08/01 10:07:46;;;;;;;4.13;2.78;;;;;;;;;;4999693;28;20034;-81
2023/08/01 10:10:11;;;;;;;4.10;2.90;;;;;;;;;;5016901;28;20524;-78
2023/08/01 10:12:38;;;;;;;6.03;3.33;;;;;;;;;;5018003;28;20030;-81
2023/08/01 10:15:04;;;;;;;5.57;3.20;;;;;;;;;;5018895;28;20371;-79
2023/08/01 10:17:30;;;;;;;4.20;2.80;;;;;;;;;;5018857;28;20374;-79
2023/08/01 10:19:57;;;;;;;6.18;3.13;;;;;;;;;;5019497;28;20563;-78
2023/08/01 10:22:24;;;;;;;3.03;2.40;;;;;;;;;;5018899;28;20060;-79
2023/08/01 10:24:50;;;;;;;5.80;3.28;;;;;;;;;;5019602;28;20096;-79
2023/08/01 10:27:19;;;;;;;4.32;2.83;;;;;;;;;;5001121;28;20497;-78
2023/08/01 10:29:46;;;;;;;4.18;2.90;;;;;;;;;;5018931;28;20034;-78
2023/08/01 10:32:11;;;;;;;6.10;3.20;;;;;;;;;;5017653;28;20103;-79
2023/08/01 10:34:37;;;;;;;5.30;2.90;;;;;;;;;;5001239;28;20057;-79
2023/08/01 10:37:02;;;;;;;4.85;3.28;;;;;;;;;;5001644;28;20034;-79
2023/08/01 10:39:28;;;;;;;6.57;3.85;;;;;;;;;;5018033;28;20026;-79
2023/08/01 10:42:02;;;;;;;6.07;2.50;;;;;;;;;;5008902;28;20045;-78
2023/08/01 10:44:30;;;;;;;10.10;4.28;;;;;;;;;;5027711;28;20029;-78
2023/08/01 10:47:03;;;;;;;4.35;3.47;;;;;;;;;;5020827;28;20030;-78
2023/08/01 10:49:39;;;;;;;3.95;2.92;;;;;;;;;;5026491;28;20038;-79
2023/08/01 10:52:19;;;;;;;3.88;3.05;;;;;;;;;;5025874;28;20572;-78
2023/08/01 10:54:46;;;;;;;4.97;3.10;;;;;;;;;;5031924;28;20030;-79
2023/08/01 10:57:17;;;;;;;3.95;2.63;;;;;;;;;;5037128;28;20025;-79
2023/08/01 10:59:44;;;;;;;5.40;3.28;;;;;;;;;;5026266;28;20026;-79
2023/08/01 11:02:09;;;;;;;4.20;3.35;;;;;;;;;;5026497;28;20033;-79
2023/08/01 11:04:34;;;;;;;5.95;3.35;;;;;;;;;;5019376;28;20559;-78
2023/08/01 11:07:00;;;;;;;5.93;3.42;;;;;;;;;;5023339;28;20037;-79
2023/08/01 11:09:27;;;;;;;6.00;3.38;;;;;;;;;;5023119;28;20062;-79
2023/08/01 11:11:55;;;;;;;5.00;3.50;;;;;;;;;;5024355;28;20031;-79
2023/08/01 11:14:26;;;;;;;3.15;2.78;;;;;;;;;;5019430;28;20046;-78
2023/08/01 11:16:55;;;;;;;4.63;3.45;;;;;;;;;;5020882;28;20513;-79
2023/08/01 11:19:24;;;;;;;3.38;3.00;;;;;;;;;;5022877;28;20038;-79
2023/08/01 11:21:51;;;;;;;7.97;3.25;;;;;;;;;;5023321;28;20036;-79
2023/08/01 11:24:18;;;;;;;3.72;2.92;;;;;;;;;;5017123;28;20025;-79
2023/08/01 11:26:45;;;;;;;2.95;2.45;;;;;;;;;;5030674;28;20083;-79
2023/08/01 11:29:11;;;;;;;5.93;2.75;;;;;;;;;;5017617;28;20068;-79
2023/08/01 11:31:37;;;;;;;4.88;2.60;;;;;;;;;;5017730;28;20536;-78
2023/08/01 11:34:02;;;;;;;3.88;2.80;;;;;;;;;;5017340;28;20041;-78
2023/08/01 11:36:28;;;;;;;3.15;2.47;;;;;;;;;;5032237;28;20030;-79
2023/08/01 11:38:57;;;;;;;2.35;2.15;;;;;;;;;;5018207;28;20057;-79
2023/08/01 11:41:23;;;;;;;4.22;2.60;;;;;;;;;;5016933;28;20030;-79
2023/08/01 11:43:48;;;;;;;2.90;2.10;;;;;;;;;;5035552;28;20065;-78
2023/08/01 11:46:14;;;;;;;1.75;1.63;;;;;;;;;;5037193;28;20033;-79
2023/08/01 11:48:44;;;;;;;5.40;2.83;;;;;;;;;;5036251;28;20063;-79
2023/08/01 11:51:09;;;;;;;2.78;1.92;;;;;;;;;;5036995;28;20021;-79
2023/08/01 11:53:38;;;;;;;3.53;1.70;;;;;;;;;;5035507;28;20017;-80
2023/08/01 11:56:06;;;;;;;2.90;2.00;;;;;;;;;;5035241;28;20040;-79
2023/08/01 11:58:34;;;;;;;2.05;1.67;;;;;;;;;;5036898;28;20033;-79
2023/08/01 12:01:09;;;;;;;1.90;1.70;;;;;;;;;;5036766;28;20056;-78
2023/08/01 12:03:54;;;;;;;3.15;1.92;;;;;;;;;;5036460;28;20060;-79
2023/08/01 12:06:23;;;;;;;2.10;1.90;;;;;;;;;;5036524;28;20082;-77
2023/08/01 12:08:52;;;;;;;2.10;1.90;;;;;;;;;;5035818;28;20071;-79
2023/08/01 12:11:27;;;;;;;1.92;1.73;;;;;;;;;;5036385;28;20064;-79
2023/08/01 12:14:00;;;;;;;1.52;1.42;;;;;;;;;;5035705;28;20033;-79
2023/08/01 12:16:26;;;;;;;1.92;1.75;;;;;;;;;;5035067;28;20129;-79
2023/08/01 12:18:51;;;;;;;1.88;1.65;;;;;;;;;;5035624;28;20053;-78
2023/08/01 12:21:16;;;;;;;1.63;1.52;;;;;;;;;;5035318;28;20584;-79
2023/08/01 12:23:42;;;;;;;1.55;1.45;;;;;;;;;;5025707;28;20104;-79
2023/08/01 12:26:07;;;;;;;2.55;1.90;;;;;;;;;;5014285;28;20402;-79
2023/08/01 12:28:32;;;;;;;3.40;1.88;;;;;;;;;;5016299;28;20041;-79
2023/08/01 12:30:58;;;;;;;1.67;1.58;;;;;;;;;;5015320;28;20042;-78
2023/08/01 12:33:24;;;;;;;2.55;1.73;;;;;;;;;;5014556;28;20026;-78
2023/08/01 12:35:49;;;;;;;2.00;1.80;;;;;;;;;;5015701;28;20035;-78
2023/08/01 12:38:14;;;;;;;7.82;1.67;;;;;;;;;;5016062;28;20116;-79
2023/08/01 12:40:40;;;;;;;4.20;1.88;;;;;;;;;;5015409;28;20104;-78
2023/08/01 12:43:05;;;;;;;2.60;1.73;;;;;;;;;;5014109;28;20042;-78
2023/08/01 12:45:30;;;;;;;7.57;2.10;;;;;;;;;;5014926;28;20049;-79
2023/08/01 12:47:56;;;;;;;5.13;1.70;;;;;;;;;;5015426;28;20025;-79
2023/08/01 12:50:21;;;;;;;2.15;1.75;;;;;;;;;;5013884;28;20034;-77
2023/08/01 12:52:46;;;;;;;5.90;1.70;;;;;;;;;;5014658;28;20114;-78
2023/08/01 12:55:12;;;;;;;2.63;1.70;;;;;;;;;;5013092;28;20049;-79
2023/08/01 12:57:37;;;;;;;2.58;1.90;;;;;;;;;;5013397;28;20315;-79
2023/08/01 13:00:03;;;;;;;2.40;1.70;;;;;;;;;;5015034;28;20493;-77
2023/08/01 13:02:28;;;;;;;3.08;1.70;;;;;;;;;;5015165;28;20088;-79
2023/08/01 13:04:53;;;;;;;9.45;2.53;;;;;;;;;;5015068;28;20037;-79
2023/08/01 13:07:19;;;;;;;1.50;1.40;;;;;;;;;;5013681;28;20030;-77
2023/08/01 13:09:44;;;;;;;2.20;1.58;;;;;;;;;;5015249;28;20034;-79
2023/08/01 13:12:10;;;;;;;2.53;1.92;;;;;;;;;;5013427;28;20055;-78
2023/08/01 13:14:35;;;;;;;1.42;1.20;;;;;;;;;;5015480;28;20026;-79
2023/08/01 13:17:00;;;;;;;2.55;1.60;;;;;;;;;;5013434;28;20577;-79
2023/08/01 13:19:26;;;;;;;1.65;1.52;;;;;;;;;;5013734;28;20034;-79
2023/08/01 13:21:51;;;;;;;2.75;1.50;;;;;;;;;;5013713;28;20030;-79
2023/08/01 13:24:16;;;;;;;1.92;1.48;;;;;;;;;;5013951;28;20434;-78
2023/08/01 13:26:42;;;;;;;2.08;1.40;;;;;;;;;;5015358;28;20022;-77
2023/08/01 13:29:07;;;;;;;1.35;1.25;;;;;;;;;;5013614;28;20065;-79
2023/08/01 13:31:32;;;;;;;1.45;1.35;;;;;;;;;;5014833;28;20052;-79
2023/08/01 13:33:57;;;;;;;1.65;1.30;;;;;;;;;;5013072;28;20038;-78
2023/08/01 13:36:24;;;;;;;1.27;1.17;;;;;;;;;;5015075;28;20044;-79
2023/08/01 13:38:49;;;;;;;2.70;1.42;;;;;;;;;;5014878;28;20029;-79
2023/08/01 13:41:15;;;;;;;2.45;1.30;;;;;;;;;;5014424;28;20164;-79
2023/08/01 13:43:40;;;;;;;4.70;1.58;;;;;;;;;;5014964;28;20054;-80
2023/08/01 13:46:16;;;;;;;3.45;1.27;;;;;;;;;;5014530;28;20045;-79
2023/08/01 13:48:44;;;;;;;1.38;1.27;;;;;;;;;;5015390;28;20037;-79
2023/08/01 13:51:10;;;;;;;1.27;1.25;;;;;;;;;;5014549;28;20068;-79
2023/08/01 13:53:40;;;;;;;1.48;1.33;;;;;;;;;;5013904;28;20029;-78
2023/08/01 13:56:11;;;;;;;3.55;1.15;;;;;;;;;;5014353;28;20030;-79
2023/08/01 13:58:40;;;;;;;3.28;1.20;;;;;;;;;;5015056;28;20037;-79
2023/08/01 14:01:07;;;;;;;1.13;1.05;;;;;;;;;;5013944;28;20045;-79
2023/08/01 14:03:33;;;;;;;1.30;1.10;;;;;;;;;;5014352;28;20038;-79
2023/08/01 14:06:10;;;;;;;1.30;1.20;;;;;;;;;;5013913;28;20508;-79
2023/08/01 14:08:35;;;;;;;7.10;1.30;;;;;;;;;;5013009;28;20470;-79
2023/08/01 14:11:05;;;;;;;1.33;1.23;;;;;;;;;;5013679;28;20038;-78
2023/08/01 14:13:30;;;;;;;0.98;0.98;;;;;;;;;;5013353;28;20038;-77
2023/08/01 14:15:56;;;;;;;1.10;1.05;;;;;;;;;;5012521;28;20617;-78
2023/08/01 14:18:21;;;;;;;2.78;1.33;;;;;;;;;;5012897;28;20018;-77
2023/08/01 14:20:47;;;;;;;2.65;1.30;;;;;;;;;;5013986;28;20449;-77
2023/08/01 14:23:12;;;;;;;1.33;1.23;;;;;;;;;;5013078;28;20037;-79
2023/08/01 14:25:37;;;;;;;1.95;1.20;;;;;;;;;;5011687;28;20038;-78
2023/08/01 14:28:03;;;;;;;1.52;1.30;;;;;;;;;;5013023;28;20037;-76
2023/08/01 14:30:29;;;;;;;1.60;1.50;;;;;;;;;;5011469;28;20041;-78
2023/08/01 14:33:05;;;;;;;7.43;1.30;;;;;;;;;;5013215;28;20385;-79
2023/08/01 14:35:30;;;;;;;1.42;1.33;;;;;;;;;;5012406;28;20449;-79
2023/08/01 14:37:55;;;;;;;2.88;1.15;;;;;;;;;;5013432;28;20049;-77